ENNM/OSY METAR and TAF weather

Enter ICAO airport designator
Station Type Date Time Source
ENNM METAR 2019/04/18 19:50 UTC NOAA

ENNM 181950Z 09003KT 050V140 CAVOK 08/00 Q1035


Station Type Date Time Source
ENNM Decoded METAR 2019/04/18 19:50 UTC NOAA

Namsos Lufthavn, Norway (ENNM) 64-28N 011-35E 2M
Apr 18, 2019 - 03:50 PM EDT / 2019.04.18 1950 UTC
Wind: from the E (090 degrees) at 3 MPH (3 KT) (direction variable):0
Visibility: greater than 7 mile(s):0
Temperature: 46 F (8 C)
Dew Point: 32 F (0 C)
Relative Humidity: 56%
Pressure (altimeter): 30.56 in. Hg (1035 hPa)
ob: ENNM 181950Z 09003KT 050V140 CAVOK 08/00 Q1035
cycle: 20

Station Type Date Time Source
ENNM TAF UTC NOAA

Error!

Example: see airport list